createdAt,value
2023-03-11T00:01:12.709Z,96443.78
2023-03-11T00:03:41.683Z,96464.22
2023-03-11T00:06:10.437Z,96455.22
2023-03-11T00:08:41.292Z,96472.38
2023-03-11T00:11:10.285Z,96473.13
2023-03-11T00:13:40.922Z,96470.16
2023-03-11T00:16:09.697Z,96480.75
2023-03-11T00:18:38.496Z,96486.03
2023-03-11T00:21:07.450Z,96486.03
2023-03-11T00:23:36.447Z,96495.34
2023-03-11T00:26:06.812Z,96505.34
2023-03-11T00:28:35.738Z,96495.19
2023-03-11T00:31:05.748Z,96511.25
2023-03-11T00:33:34.478Z,96513.84
2023-03-11T00:36:03.856Z,96507.97
2023-03-11T00:38:32.510Z,96521.13
2023-03-11T00:41:02.190Z,96528.06
2023-03-11T00:43:34.725Z,96528.53
2023-03-11T00:46:04.953Z,96544.41
2023-03-11T00:48:33.803Z,96530.03
2023-03-11T00:51:02.610Z,96541.81
2023-03-11T00:53:31.392Z,96558.66
2023-03-11T00:56:01.451Z,96553.69
2023-03-11T00:58:30.824Z,96566.16
2023-03-11T01:01:00.996Z,96579.34
2023-03-11T01:03:31.641Z,96577.94
2023-03-11T01:06:00.415Z,96591.38
2023-03-11T01:08:29.599Z,96589.41
2023-03-11T01:10:58.412Z,96593.50
2023-03-11T01:13:29.888Z,96598.81
2023-03-11T01:16:01.126Z,96610.84
2023-03-11T01:18:29.941Z,96623.56
2023-03-11T01:20:58.578Z,96615.09
2023-03-11T01:23:27.821Z,96629.91
2023-03-11T01:25:56.591Z,96637.28
2023-03-11T01:28:28.345Z,96648.91
2023-03-11T01:30:57.069Z,96649.00
2023-03-11T01:33:27.215Z,96646.03
2023-03-11T01:35:56.208Z,96670.16
2023-03-11T01:38:28.136Z,96672.31
2023-03-11T01:40:56.827Z,96678.34
2023-03-11T01:43:51.977Z,96687.78
2023-03-11T01:46:26.754Z,96697.06
2023-03-11T01:49:00.733Z,96698.34
2023-03-11T01:51:38.840Z,96685.22
2023-03-11T01:54:14.559Z,96704.28
2023-03-11T01:56:44.229Z,96707.47
2023-03-11T01:59:19.871Z,96713.50
2023-03-11T02:01:58.861Z,96730.03
2023-03-11T02:04:30.536Z,96727.94
2023-03-11T02:06:59.730Z,96744.16
2023-03-11T02:09:28.573Z,96756.31
2023-03-11T02:11:58.753Z,96754.72
2023-03-11T02:14:30.600Z,96758.25
2023-03-11T02:17:01.096Z,96757.25
2023-03-11T02:19:53.308Z,96747.41
2023-03-11T02:22:23.080Z,96773.97
2023-03-11T02:25:05.657Z,96792.56
2023-03-11T02:27:41.401Z,96768.69
2023-03-11T02:30:14.420Z,96794.31
2023-03-11T02:32:48.728Z,96798.22
2023-03-11T02:35:19.504Z,96793.53
2023-03-11T02:37:51.722Z,96803.22
2023-03-11T02:40:50.094Z,96796.22
2023-03-11T02:43:29.337Z,96809.25
2023-03-11T02:45:58.870Z,96836.22
2023-03-11T02:48:30.256Z,96827.25
2023-03-11T02:51:00.323Z,96840.06
2023-03-11T02:53:36.083Z,96844.81
2023-03-11T02:56:05.508Z,96851.56
2023-03-11T02:58:37.444Z,96888.09
2023-03-11T03:01:06.612Z,96880.19
2023-03-11T03:03:36.436Z,96902.47
2023-03-11T03:06:05.888Z,96899.94
2023-03-11T03:08:34.623Z,96902.59
2023-03-11T03:11:03.430Z,96905.13
2023-03-11T03:13:32.456Z,96916.13
2023-03-11T03:16:03.097Z,96918.06
2023-03-11T03:18:31.924Z,96938.25
2023-03-11T03:21:00.646Z,96946.63
2023-03-11T03:23:35.065Z,96953.75
2023-03-11T03:26:04.306Z,96967.28
2023-03-11T03:28:34.719Z,96979.69
2023-03-11T03:31:11.488Z,96988.84
2023-03-11T03:33:42.464Z,96993.66
2023-03-11T03:36:15.236Z,96999.84
2023-03-11T03:38:47.913Z,97012.81
2023-03-11T03:41:17.235Z,97022.56
2023-03-11T03:43:46.867Z,97032.31
2023-03-11T03:46:17.615Z,97032.41
2023-03-11T03:48:49.554Z,97044.34
2023-03-11T03:51:19.006Z,97068.28
2023-03-11T03:54:08.659Z,97064.63
2023-03-11T03:56:37.773Z,97072.66
2023-03-11T03:59:06.758Z,97091.34
2023-03-11T04:01:42.760Z,97097.91
2023-03-11T04:04:11.893Z,97100.75
2023-03-11T04:06:40.816Z,97110.84
2023-03-11T04:09:11.820Z,97112.91
2023-03-11T04:11:40.881Z,97126.53
2023-03-11T04:14:10.208Z,97121.91
2023-03-11T04:16:46.841Z,97128.03
2023-03-11T04:19:17.542Z,97131.00
2023-03-11T04:21:46.269Z,97147.06
2023-03-11T04:24:15.007Z,97160.03
2023-03-11T04:26:44.546Z,97153.72
2023-03-11T04:29:17.540Z,97168.16
2023-03-11T04:31:52.099Z,97170.44
2023-03-11T04:34:21.210Z,97181.22
2023-03-11T04:36:53.386Z,97194.16
2023-03-11T04:39:24.474Z,97187.06
2023-03-11T04:41:53.523Z,97182.38
2023-03-11T04:44:25.494Z,97195.84
2023-03-11T04:46:55.815Z,97197.84
2023-03-11T04:49:24.589Z,97205.91
2023-03-11T04:51:54.522Z,97213.59
2023-03-11T04:54:25.187Z,97220.19
2023-03-11T04:56:53.988Z,97219.97
2023-03-11T04:59:23.623Z,97223.66
2023-03-11T05:01:55.418Z,97240.28
2023-03-11T05:04:24.618Z,97250.84
2023-03-11T05:06:53.349Z,97253.31
2023-03-11T05:09:25.301Z,97260.66
2023-03-11T05:11:54.354Z,97270.97
2023-03-11T05:14:24.048Z,97263.88
2023-03-11T05:16:56.501Z,97274.88
2023-03-11T05:19:35.536Z,97290.25
2023-03-11T05:22:26.781Z,97282.91
2023-03-11T05:24:55.752Z,97307.34
2023-03-11T05:27:24.922Z,97313.84
2023-03-11T05:29:57.275Z,97332.53
2023-03-11T05:32:30.086Z,97319.56
2023-03-11T05:34:59.140Z,97329.50
2023-03-11T05:37:28.192Z,97341.81
2023-03-11T05:39:58.228Z,97344.47
2023-03-11T05:42:27.396Z,97350.78
2023-03-11T05:44:57.963Z,97354.44
2023-03-11T05:47:28.871Z,97353.69
2023-03-11T05:49:58.939Z,97365.84
2023-03-11T05:52:27.830Z,97367.84
2023-03-11T05:54:56.806Z,97373.47
2023-03-11T05:57:28.635Z,97380.41
2023-03-11T05:59:58.169Z,97370.66
2023-03-11T06:02:28.334Z,97385.06
2023-03-11T06:05:00.930Z,97395.44
2023-03-11T06:07:30.113Z,97398.25
2023-03-11T06:09:58.828Z,97410.41
2023-03-11T06:12:27.600Z,97409.19
2023-03-11T06:15:12.060Z,97420.34
2023-03-11T06:17:44.571Z,97439.25
2023-03-11T06:20:15.417Z,97430.34
2023-03-11T06:22:46.051Z,97442.53
2023-03-11T06:25:15.109Z,97450.84
2023-03-11T06:27:50.685Z,97454.09
2023-03-11T06:30:20.992Z,97472.56
2023-03-11T06:32:59.216Z,97474.22
2023-03-11T06:35:28.068Z,97484.28
2023-03-11T06:37:57.741Z,97488.75
2023-03-11T06:40:26.541Z,97507.88
2023-03-11T06:42:55.860Z,97506.00
2023-03-11T06:45:27.449Z,97506.19
2023-03-11T06:47:56.856Z,97514.50
2023-03-11T06:50:27.914Z,97518.75
2023-03-11T06:52:59.327Z,97528.91
2023-03-11T06:55:33.357Z,97534.19
2023-03-11T06:58:02.843Z,97538.69
2023-03-11T07:00:31.804Z,97536.66
2023-03-11T07:03:02.117Z,97551.66
2023-03-11T07:05:32.793Z,97555.69
2023-03-11T07:08:07.359Z,97561.59
2023-03-11T07:10:36.328Z,97563.28
2023-03-11T07:13:05.390Z,97564.91
2023-03-11T07:15:34.194Z,97586.19
2023-03-11T07:18:03.217Z,97581.91
2023-03-11T07:20:33.982Z,97596.94
2023-03-11T07:23:02.691Z,97593.91
2023-03-11T07:25:31.420Z,97597.09
2023-03-11T07:28:04.170Z,97599.97
2023-03-11T07:30:34.578Z,97609.31
2023-03-11T07:33:03.482Z,97613.34
2023-03-11T07:35:33.853Z,97622.25
2023-03-11T07:38:03.093Z,97623.69
2023-03-11T07:40:32.140Z,97628.78
2023-03-11T07:43:01.185Z,97640.75
2023-03-11T07:45:30.660Z,97643.78
2023-03-11T07:47:59.536Z,97657.19
2023-03-11T07:50:28.558Z,97658.78
2023-03-11T07:52:58.771Z,97653.94
2023-03-11T07:55:27.582Z,97664.91
2023-03-11T07:57:56.324Z,97679.91
2023-03-11T08:00:33.617Z,97681.13
2023-03-11T08:03:03.497Z,97679.06
2023-03-11T08:05:35.581Z,97692.22
2023-03-11T08:08:06.165Z,97689.56
2023-03-11T08:10:37.748Z,97699.78
2023-03-11T08:13:07.039Z,97704.22
2023-03-11T08:15:36.249Z,97702.56
2023-03-11T08:18:05.587Z,97715.97
2023-03-11T08:20:34.381Z,97715.56
2023-03-11T08:23:04.983Z,97722.81
2023-03-11T08:25:41.044Z,97734.22
2023-03-11T08:28:10.294Z,97726.06
2023-03-11T08:30:42.208Z,97739.22
2023-03-11T08:33:13.358Z,97742.66
2023-03-11T08:35:42.380Z,97751.19
2023-03-11T08:38:12.753Z,97756.06
2023-03-11T08:40:41.533Z,97763.72
2023-03-11T08:43:13.700Z,97764.94
2023-03-11T08:45:43.004Z,97774.66
2023-03-11T08:48:14.447Z,97772.66
2023-03-11T08:50:54.061Z,97784.03
2023-03-11T08:53:25.622Z,97783.84
2023-03-11T08:55:55.110Z,97788.72
2023-03-11T08:58:24.201Z,97791.34
2023-03-11T09:00:54.035Z,97798.00
2023-03-11T09:03:22.962Z,97800.31
2023-03-11T09:06:00.415Z,97809.44
2023-03-11T09:08:31.619Z,97816.75
2023-03-11T09:11:00.348Z,97818.78
2023-03-11T09:13:29.516Z,97820.41
2023-03-11T09:15:58.604Z,97830.56
2023-03-11T09:18:29.415Z,97823.06
2023-03-11T09:20:59.293Z,97843.75
2023-03-11T09:23:33.024Z,97844.94
2023-03-11T09:26:01.878Z,97840.91
2023-03-11T09:28:30.659Z,97843.94
2023-03-11T09:30:59.445Z,97854.75
2023-03-11T09:33:28.610Z,97859.25
2023-03-11T09:35:59.038Z,97864.88
2023-03-11T09:38:29.281Z,97867.34
2023-03-11T09:41:06.228Z,97874.63
2023-03-11T09:43:55.038Z,97880.31
2023-03-11T09:46:55.776Z,97886.00
2023-03-11T09:49:42.251Z,97888.22
2023-03-11T09:52:14.269Z,97892.41
2023-03-11T09:54:48.915Z,97887.16
2023-03-11T09:57:23.901Z,97901.81
2023-03-11T09:59:53.025Z,97894.53
2023-03-11T10:02:26.810Z,97898.78
2023-03-11T10:05:02.435Z,97903.44
2023-03-11T10:07:40.689Z,97905.28
2023-03-11T10:10:15.167Z,97916.03
2023-03-11T10:13:01.231Z,97920.09
2023-03-11T10:15:48.393Z,97911.34
2023-03-11T10:18:36.634Z,97914.84
2023-03-11T10:21:23.830Z,97919.72
2023-03-11T10:24:16.052Z,97931.53
2023-03-11T10:26:52.734Z,97928.84
2023-03-11T10:29:28.378Z,97938.41
2023-03-11T10:32:07.408Z,97933.91
2023-03-11T10:34:43.717Z,97928.28
2023-03-11T10:37:18.612Z,97934.13
2023-03-11T10:39:49.254Z,97937.34
2023-03-11T10:42:26.203Z,97952.38
2023-03-11T10:44:56.875Z,97954.03
2023-03-11T10:47:27.156Z,97967.59
2023-03-11T10:49:55.854Z,97965.72
2023-03-11T10:52:24.566Z,97966.47
2023-03-11T10:55:04.829Z,97976.22
2023-03-11T10:57:39.976Z,97968.75
2023-03-11T11:00:17.133Z,97978.97
2023-03-11T11:02:58.181Z,97990.38
2023-03-11T11:05:33.428Z,97986.13
2023-03-11T11:08:10.148Z,97988.00
2023-03-11T11:10:49.939Z,97990.22
2023-03-11T11:13:23.672Z,97991.84
2023-03-11T11:16:01.066Z,97989.59
2023-03-11T11:18:35.873Z,97998.13
2023-03-11T11:21:08.414Z,97991.56
2023-03-11T11:23:44.199Z,97988.34
2023-03-11T11:26:24.340Z,97996.84
2023-03-11T11:29:14.347Z,98004.16
2023-03-11T11:31:45.425Z,98003.75
2023-03-11T11:34:38.099Z,98002.94
2023-03-11T11:37:12.768Z,98004.16
2023-03-11T11:39:51.978Z,98010.03
2023-03-11T11:42:21.837Z,98004.59
2023-03-11T11:44:59.331Z,98003.59
2023-03-11T11:47:35.160Z,98007.03
2023-03-11T11:50:15.066Z,98005.78
2023-03-11T11:52:52.208Z,98010.97
2023-03-11T11:55:25.328Z,98018.28
2023-03-11T11:57:54.241Z,98010.50
2023-03-11T12:00:31.581Z,98014.91
2023-03-11T12:03:36.890Z,98016.34
2023-03-11T12:06:19.351Z,98025.81
2023-03-11T12:09:05.027Z,98021.69
2023-03-11T12:11:44.189Z,98021.97
2023-03-11T12:14:22.808Z,98020.41
2023-03-11T12:16:59.704Z,98019.31
2023-03-11T12:19:44.645Z,98015.16
2023-03-11T12:23:10.222Z,98013.53
2023-03-11T12:25:46.743Z,98018.69
2023-03-11T12:28:32.538Z,98019.53
2023-03-11T12:31:09.106Z,98016.72
2023-03-11T12:33:43.397Z,98020.75
2023-03-11T12:36:29.142Z,98023.56
2023-03-11T12:38:58.535Z,98028.25
2023-03-11T12:41:37.018Z,98027.47
2023-03-11T12:44:24.346Z,98023.88
2023-03-11T12:47:27.311Z,98025.09
2023-03-11T12:50:36.131Z,98026.34
2023-03-11T12:53:05.170Z,98024.09
2023-03-11T12:55:37.500Z,98033.66
2023-03-11T12:58:54.578Z,98030.47
2023-03-11T13:02:05.687Z,98029.06
2023-03-11T13:05:00.865Z,98040.63
2023-03-11T13:07:49.638Z,98038.13
2023-03-11T13:10:43.156Z,98045.75
2023-03-11T13:13:41.113Z,98039.13
2023-03-11T13:16:39.962Z,98048.25
2023-03-11T13:19:50.116Z,98056.34
2023-03-11T13:23:21.674Z,98068.59
2023-03-11T13:26:23.861Z,98067.00
2023-03-11T13:29:48.908Z,98066.97
2023-03-11T13:32:41.538Z,98072.09
2023-03-11T13:35:31.953Z,98076.91
2023-03-11T13:38:33.747Z,98078.94
2023-03-11T13:41:14.369Z,98087.91
2023-03-11T13:43:49.525Z,98083.63
2023-03-11T13:46:31.823Z,98088.94
2023-03-11T13:49:11.797Z,98097.13
2023-03-11T13:51:46.650Z,98100.75
2023-03-11T13:54:41.154Z,98101.25
2023-03-11T13:57:28.563Z,98112.13
2023-03-11T13:59:59.719Z,98105.25
2023-03-11T14:02:30.051Z,98121.16
2023-03-11T14:05:05.957Z,98114.25
2023-03-11T14:07:38.477Z,98123.63
2023-03-11T14:10:33.384Z,98122.38
2023-03-11T14:13:18.074Z,98121.06
2023-03-11T14:15:55.888Z,98122.66
2023-03-11T14:18:35.498Z,98123.88
2023-03-11T14:21:07.940Z,98132.91
2023-03-11T14:23:43.652Z,98135.78
2023-03-11T14:26:20.698Z,98130.84
2023-03-11T14:28:54.329Z,98139.03
2023-03-11T14:31:33.611Z,98145.56
2023-03-11T14:34:14.719Z,98141.91
2023-03-11T14:36:45.938Z,98146.34
2023-03-11T14:39:30.876Z,98148.41
2023-03-11T14:42:26.433Z,98153.06
2023-03-11T14:45:06.093Z,98154.50
2023-03-11T14:47:42.706Z,98155.53
2023-03-11T14:50:20.933Z,98162.69
2023-03-11T14:52:55.723Z,98166.34
2023-03-11T14:55:31.257Z,98170.63
2023-03-11T14:58:08.057Z,98168.63
2023-03-11T15:00:43.650Z,98174.09
2023-03-11T15:03:29.027Z,98178.97
2023-03-11T15:06:03.199Z,98179.38
2023-03-11T15:08:37.602Z,98182.44
2023-03-11T15:11:24.461Z,98185.88
2023-03-11T15:13:55.895Z,98191.78
2023-03-11T15:16:36.084Z,98194.84
2023-03-11T15:19:24.790Z,98196.09
2023-03-11T15:21:56.560Z,98190.19
2023-03-11T15:24:29.013Z,98197.91
2023-03-11T15:27:02.825Z,98199.75
2023-03-11T15:29:36.210Z,98210.34
2023-03-11T15:32:28.797Z,98213.59
2023-03-11T15:35:15.187Z,98220.72
2023-03-11T15:37:45.389Z,98216.84
2023-03-11T15:40:35.230Z,98226.84
2023-03-11T15:43:26.277Z,98227.44
2023-03-11T15:46:00.144Z,98227.06
2023-03-11T15:48:31.429Z,98231.16
2023-03-11T15:51:02.217Z,98230.13
2023-03-11T15:53:32.867Z,98231.34
2023-03-11T15:56:13.734Z,98239.69
2023-03-11T15:58:43.052Z,98240.31
2023-03-11T16:01:13.965Z,98249.66
2023-03-11T16:03:42.731Z,98258.44
2023-03-11T16:06:11.814Z,98257.84
2023-03-11T16:08:40.558Z,98259.66
2023-03-11T16:11:13.986Z,98266.16
2023-03-11T16:13:43.609Z,98263.50
2023-03-11T16:16:18.936Z,98271.06
2023-03-11T16:18:48.047Z,98274.09
2023-03-11T16:21:21.238Z,98277.97
2023-03-11T16:23:52.474Z,98278.78
2023-03-11T16:26:24.148Z,98281.44
2023-03-11T16:28:53.005Z,98279.41
2023-03-11T16:31:25.826Z,98288.56
2023-03-11T16:33:54.790Z,98283.06
2023-03-11T16:36:23.734Z,98289.75
2023-03-11T16:38:52.506Z,98294.25
2023-03-11T16:41:22.038Z,98296.69
2023-03-11T16:43:50.834Z,98306.88
2023-03-11T16:46:19.861Z,98304.66
2023-03-11T16:48:50.172Z,98309.13
2023-03-11T16:51:18.888Z,98307.69
2023-03-11T16:53:47.765Z,98305.66
2023-03-11T16:56:18.068Z,98319.50
2023-03-11T16:58:48.281Z,98323.97
2023-03-11T17:01:19.235Z,98327.81
2023-03-11T17:03:50.099Z,98331.28
2023-03-11T17:06:20.668Z,98334.97
2023-03-11T17:08:51.435Z,98344.34
2023-03-11T17:11:22.553Z,98348.78
2023-03-11T17:13:52.364Z,98350.63
2023-03-11T17:16:21.479Z,98353.69
2023-03-11T17:18:53.254Z,98361.84
2023-03-11T17:21:22.902Z,98365.50
2023-03-11T17:23:54.504Z,98364.88
2023-03-11T17:26:23.905Z,98376.91
2023-03-11T17:28:52.676Z,98367.13
2023-03-11T17:31:22.124Z,98379.66
2023-03-11T17:33:52.225Z,98381.06
2023-03-11T17:36:21.847Z,98382.06
2023-03-11T17:38:56.446Z,98383.63
2023-03-11T17:41:25.425Z,98382.75
2023-03-11T17:43:54.130Z,98390.66
2023-03-11T17:46:23.744Z,98397.38
2023-03-11T17:48:54.627Z,98390.59
2023-03-11T17:51:26.414Z,98398.91
2023-03-11T17:53:56.723Z,98398.09
2023-03-11T17:56:26.177Z,98396.34
2023-03-11T17:58:56.206Z,98402.59
2023-03-11T18:01:28.533Z,98394.84
2023-03-11T18:03:58.858Z,98398.31
2023-03-11T18:06:28.035Z,98403.91
2023-03-11T18:08:56.917Z,98410.34
2023-03-11T18:11:29.375Z,98406.50
2023-03-11T18:13:59.209Z,98415.19
2023-03-11T18:16:31.976Z,98411.41
2023-03-11T18:19:02.315Z,98418.56
2023-03-11T18:21:32.790Z,98418.06
2023-03-11T18:24:02.234Z,98413.94
2023-03-11T18:26:46.903Z,98420.84
2023-03-11T18:29:15.730Z,98420.59
2023-03-11T18:31:44.785Z,98424.97
2023-03-11T18:34:16.000Z,98428.47
2023-03-11T18:36:44.769Z,98424.31
2023-03-11T18:39:13.840Z,98426.69
2023-03-11T18:41:43.701Z,98426.53
2023-03-11T18:44:12.906Z,98427.16
2023-03-11T18:46:45.618Z,98427.50
2023-03-11T18:49:17.849Z,98434.19
2023-03-11T18:51:46.637Z,98428.66
2023-03-11T18:54:15.666Z,98432.31
2023-03-11T18:56:44.909Z,98431.22
2023-03-11T18:59:14.555Z,98441.53
2023-03-11T19:01:43.384Z,98437.63
2023-03-11T19:04:12.647Z,98440.06
2023-03-11T19:06:42.854Z,98439.78
2023-03-11T19:09:12.029Z,98438.22
2023-03-11T19:11:40.820Z,98445.88
2023-03-11T19:14:09.448Z,98440.59
2023-03-11T19:16:38.209Z,98447.38
2023-03-11T19:19:06.993Z,98450.44
2023-03-11T19:21:35.818Z,98452.66
2023-03-11T19:24:06.874Z,98457.03
2023-03-11T19:26:44.834Z,98457.94
2023-03-11T19:29:14.947Z,98463.13
2023-03-11T19:31:45.414Z,98464.88
2023-03-11T19:34:14.324Z,98460.00
2023-03-11T19:36:43.056Z,98459.41
2023-03-11T19:39:13.382Z,98465.59
2023-03-11T19:41:42.067Z,98468.47
2023-03-11T19:44:10.790Z,98473.38
2023-03-11T19:46:39.703Z,98466.84
2023-03-11T19:49:08.509Z,98477.44
2023-03-11T19:51:49.081Z,98481.59
2023-03-11T19:54:20.493Z,98481.28
2023-03-11T19:56:49.848Z,98480.53
2023-03-11T19:59:18.808Z,98477.69
2023-03-11T20:01:47.805Z,98475.25
2023-03-11T20:04:16.656Z,98483.91
2023-03-11T20:06:45.879Z,98481.81
2023-03-11T20:09:16.202Z,98482.69
2023-03-11T20:12:05.727Z,98479.63
2023-03-11T20:14:34.683Z,98473.72
2023-03-11T20:17:03.665Z,98488.66
2023-03-11T20:19:32.519Z,98483.09
2023-03-11T20:22:01.748Z,98489.09
2023-03-11T20:24:30.589Z,98486.94
2023-03-11T20:27:00.837Z,98492.94
2023-03-11T20:29:29.677Z,98489.13
2023-03-11T20:32:08.357Z,98495.22
2023-03-11T20:34:38.017Z,98493.50
2023-03-11T20:37:06.961Z,98492.34
2023-03-11T20:39:35.802Z,98497.59
2023-03-11T20:42:06.544Z,98495.44
2023-03-11T20:44:35.567Z,98497.69
2023-03-11T20:47:04.468Z,98487.25
2023-03-11T20:49:33.702Z,98487.44
2023-03-11T20:52:03.041Z,98486.78
2023-03-11T20:54:31.862Z,98487.91
2023-03-11T20:57:00.749Z,98481.50
2023-03-11T20:59:31.191Z,98487.97
2023-03-11T21:02:00.076Z,98487.88
2023-03-11T21:04:28.921Z,98486.78
2023-03-11T21:06:57.884Z,98496.50
2023-03-11T21:09:26.692Z,98502.41
2023-03-11T21:11:55.723Z,98497.88
2023-03-11T21:14:24.705Z,98495.88
2023-03-11T21:16:55.066Z,98493.50
2023-03-11T21:19:24.032Z,98492.06
2023-03-11T21:21:53.089Z,98496.78
2023-03-11T21:24:21.890Z,98493.06
2023-03-11T21:26:50.793Z,98485.44
2023-03-11T21:29:19.827Z,98488.44
2023-03-11T21:31:48.721Z,98488.41
2023-03-11T21:34:18.990Z,98489.16
2023-03-11T21:36:47.858Z,98488.22
2023-03-11T21:39:16.837Z,98489.16
2023-03-11T21:41:45.609Z,98488.31
2023-03-11T21:44:14.576Z,98490.41
2023-03-11T21:46:44.603Z,98493.97
2023-03-11T21:49:13.443Z,98490.50
2023-03-11T21:51:43.832Z,98487.16
2023-03-11T21:54:12.772Z,98489.25
2023-03-11T21:56:41.691Z,98483.19
2023-03-11T21:59:10.936Z,98490.06
2023-03-11T22:01:39.865Z,98487.50
2023-03-11T22:04:08.765Z,98489.88
2023-03-11T22:06:37.693Z,98483.16
2023-03-11T22:09:08.294Z,98495.84
2023-03-11T22:11:37.191Z,98503.00
2023-03-11T22:14:05.925Z,98504.81
2023-03-11T22:16:35.837Z,98505.03
2023-03-11T22:19:08.919Z,98498.66
2023-03-11T22:21:37.792Z,98500.78
2023-03-11T22:24:08.567Z,98503.22
2023-03-11T22:26:37.486Z,98511.16
2023-03-11T22:29:08.932Z,98508.09
2023-03-11T22:31:37.896Z,98513.53
2023-03-11T22:34:06.545Z,98506.91
2023-03-11T22:36:35.244Z,98512.72
2023-03-11T22:39:04.458Z,98503.13
2023-03-11T22:41:35.050Z,98498.94
2023-03-11T22:44:03.745Z,98514.88
2023-03-11T22:46:32.516Z,98520.22
2023-03-11T22:49:01.164Z,98519.25
2023-03-11T22:51:29.979Z,98519.75
2023-03-11T22:53:58.716Z,98532.88
2023-03-11T22:56:27.465Z,98518.72
2023-03-11T22:58:57.670Z,98521.78
2023-03-11T23:01:26.650Z,98522.69
2023-03-11T23:03:55.496Z,98521.31
2023-03-11T23:06:24.592Z,98517.41
2023-03-11T23:08:53.582Z,98512.88
2023-03-11T23:11:24.056Z,98524.69
2023-03-11T23:13:52.817Z,98518.84
2023-03-11T23:16:26.091Z,98527.75
2023-03-11T23:18:57.078Z,98529.03
2023-03-11T23:21:29.640Z,98522.47
2023-03-11T23:24:00.042Z,98529.47
2023-03-11T23:26:29.984Z,98521.84
2023-03-11T23:29:01.083Z,98521.88
2023-03-11T23:31:32.140Z,98526.22
2023-03-11T23:34:00.972Z,98523.44
2023-03-11T23:36:32.374Z,98530.16
2023-03-11T23:39:01.069Z,98532.97
2023-03-11T23:41:30.404Z,98528.09
2023-03-11T23:43:59.112Z,98533.38
2023-03-11T23:46:27.936Z,98538.75
2023-03-11T23:48:58.131Z,98535.13
2023-03-11T23:51:26.860Z,98538.81
2023-03-11T23:53:55.988Z,98537.34
2023-03-11T23:56:24.813Z,98541.09
2023-03-11T23:58:53.556Z,98536.28
